createdAt,value
2024-05-09T00:01:40.809Z,91514.44
2024-05-09T00:04:25.528Z,91510.63
2024-05-09T00:07:10.475Z,91514.19
2024-05-09T00:09:55.371Z,91510.94
2024-05-09T00:12:40.438Z,91508.97
2024-05-09T00:15:25.346Z,91514.59
2024-05-09T00:18:10.558Z,91519.63
2024-05-09T00:20:55.453Z,91512.91
2024-05-09T00:23:40.564Z,91513.63
2024-05-09T00:26:25.443Z,91517.13
2024-05-09T00:29:10.278Z,91517.66
2024-05-09T00:31:55.264Z,91515.59
2024-05-09T00:34:40.069Z,91517.50
2024-05-09T00:37:25.205Z,91518.78
2024-05-09T00:40:18.273Z,91514.47
2024-05-09T00:43:07.739Z,91511.56
2024-05-09T00:45:52.640Z,91514.94
2024-05-09T00:48:37.581Z,91504.47
2024-05-09T00:51:22.475Z,91519.56
2024-05-09T00:54:07.514Z,91514.47
2024-05-09T00:56:52.488Z,91508.44
2024-05-09T00:59:37.647Z,91509.66
2024-05-09T01:02:22.560Z,91510.84
2024-05-09T01:05:07.463Z,91510.44
2024-05-09T01:07:52.490Z,91509.50
2024-05-09T01:10:37.420Z,91507.06
2024-05-09T01:13:22.387Z,91506.03
2024-05-09T01:16:07.305Z,91509.56
2024-05-09T01:18:52.461Z,91511.81
2024-05-09T01:21:37.387Z,91508.41
2024-05-09T01:24:22.278Z,91507.94
2024-05-09T01:27:07.455Z,91506.31
2024-05-09T01:29:52.414Z,91516.75
2024-05-09T01:32:37.509Z,91509.78
2024-05-09T01:35:22.317Z,91503.59
2024-05-09T01:38:07.358Z,91501.13
2024-05-09T01:40:52.153Z,91507.78
2024-05-09T01:43:37.099Z,91502.31
2024-05-09T01:46:22.172Z,91505.25
2024-05-09T01:49:07.378Z,91499.63
2024-05-09T01:51:52.165Z,91501.84
2024-05-09T01:54:37.052Z,91499.81
2024-05-09T01:57:22.081Z,91505.13
2024-05-09T02:00:07.976Z,91502.00
2024-05-09T02:02:53.206Z,91499.84
2024-05-09T02:05:38.832Z,91494.19
2024-05-09T02:08:23.869Z,91501.06
2024-05-09T02:11:09.026Z,91495.69
2024-05-09T02:13:53.928Z,91498.63
2024-05-09T02:16:39.034Z,91496.16
2024-05-09T02:19:24.018Z,91489.16
2024-05-09T02:22:08.912Z,91500.81
2024-05-09T02:24:53.872Z,91500.19
2024-05-09T02:27:38.932Z,91493.81
2024-05-09T02:30:31.079Z,91494.97
2024-05-09T02:33:23.946Z,91499.31
2024-05-09T02:36:09.129Z,91486.38
2024-05-09T02:38:54.012Z,91488.97
2024-05-09T02:41:39.105Z,91492.78
2024-05-09T02:44:23.894Z,91479.81
2024-05-09T02:47:09.058Z,91485.78
2024-05-09T02:49:53.928Z,91488.97
2024-05-09T02:52:38.904Z,91481.13
2024-05-09T02:55:23.904Z,91482.75
2024-05-09T02:58:08.885Z,91478.22
2024-05-09T03:00:53.833Z,91479.25
2024-05-09T03:03:38.871Z,91480.53
2024-05-09T03:06:23.786Z,91479.34
2024-05-09T03:09:08.698Z,91485.19
2024-05-09T03:11:53.890Z,91484.63
2024-05-09T03:14:38.856Z,91481.56
2024-05-09T03:17:23.968Z,91485.94
2024-05-09T03:20:14.848Z,91486.66
2024-05-09T03:23:06.090Z,91486.91
2024-05-09T03:25:51.594Z,91489.13
2024-05-09T03:28:36.535Z,91479.94
2024-05-09T03:31:21.498Z,91476.47
2024-05-09T03:34:06.487Z,91479.78
2024-05-09T03:36:51.398Z,91486.78
2024-05-09T03:39:36.407Z,91486.91
2024-05-09T03:42:21.451Z,91494.63
2024-05-09T03:45:06.501Z,91488.81
2024-05-09T03:47:51.710Z,91497.84
2024-05-09T03:50:37.503Z,91490.72
2024-05-09T03:53:23.087Z,91490.84
2024-05-09T03:56:08.000Z,91498.84
2024-05-09T03:58:52.925Z,91495.72
2024-05-09T04:01:38.021Z,91500.38
2024-05-09T04:04:23.115Z,91506.00
2024-05-09T04:07:08.034Z,91500.63
2024-05-09T04:09:53.067Z,91496.25
2024-05-09T04:12:38.141Z,91503.97
2024-05-09T04:15:23.054Z,91509.22
2024-05-09T04:18:08.296Z,91500.31
2024-05-09T04:20:53.636Z,91501.66
2024-05-09T04:23:38.581Z,91502.94
2024-05-09T04:26:23.727Z,91504.16
2024-05-09T04:29:08.686Z,91503.56
2024-05-09T04:31:53.809Z,91512.03
2024-05-09T04:34:38.711Z,91497.59
2024-05-09T04:37:23.715Z,91513.47
2024-05-09T04:40:14.178Z,91511.41
2024-05-09T04:43:05.946Z,91514.47
2024-05-09T04:45:51.198Z,91519.13
2024-05-09T04:48:36.430Z,91514.19
2024-05-09T04:51:21.132Z,91519.59
2024-05-09T04:54:08.456Z,91520.59
2024-05-09T04:56:55.627Z,91526.72
2024-05-09T04:59:40.576Z,91517.13
2024-05-09T05:02:25.485Z,91517.69
2024-05-09T05:05:11.927Z,91524.41
2024-05-09T05:07:56.872Z,91530.06
2024-05-09T05:10:41.620Z,91524.25
2024-05-09T05:13:26.690Z,91528.91
2024-05-09T05:16:11.603Z,91527.28
2024-05-09T05:18:56.592Z,91520.78
2024-05-09T05:21:41.419Z,91529.38
2024-05-09T05:24:26.244Z,91519.97
2024-05-09T05:27:11.255Z,91523.88
2024-05-09T05:29:56.174Z,91524.31
2024-05-09T05:32:41.356Z,91523.50
2024-05-09T05:35:26.656Z,91518.34
2024-05-09T05:38:11.687Z,91520.06
2024-05-09T05:40:56.811Z,91520.19
2024-05-09T05:43:42.144Z,91520.81
2024-05-09T05:46:27.063Z,91525.78
2024-05-09T05:49:12.258Z,91520.38
2024-05-09T05:51:57.669Z,91534.03
2024-05-09T05:54:42.577Z,91520.72
2024-05-09T05:57:27.714Z,91529.41
2024-05-09T06:00:21.382Z,91517.56
2024-05-09T06:03:10.949Z,91521.31
2024-05-09T06:05:56.088Z,91520.31
2024-05-09T06:08:40.942Z,91518.41
2024-05-09T06:11:26.183Z,91528.78
2024-05-09T06:14:10.984Z,91523.03
2024-05-09T06:16:58.097Z,91520.59
2024-05-09T06:19:43.406Z,91505.00
2024-05-09T06:22:28.322Z,91516.91
2024-05-09T06:25:13.276Z,91521.84
2024-05-09T06:27:58.274Z,91517.06
2024-05-09T06:30:43.557Z,91526.69
2024-05-09T06:33:29.024Z,91517.78
2024-05-09T06:36:14.271Z,91518.19
2024-05-09T06:38:59.083Z,91512.34
2024-05-09T06:41:44.133Z,91516.69
2024-05-09T06:44:29.111Z,91520.50
2024-05-09T06:47:14.142Z,91516.09
2024-05-09T06:49:59.439Z,91517.53
2024-05-09T06:52:44.514Z,91514.16
2024-05-09T06:55:29.481Z,91519.97
2024-05-09T06:58:14.458Z,91520.88
2024-05-09T07:00:59.519Z,91511.94
2024-05-09T07:03:44.563Z,91520.50
2024-05-09T07:06:29.393Z,91523.06
2024-05-09T07:09:14.342Z,91518.84
2024-05-09T07:11:59.563Z,91515.34
2024-05-09T07:14:44.537Z,91516.91
2024-05-09T07:17:29.544Z,91516.59
2024-05-09T07:20:22.945Z,91507.84
2024-05-09T07:23:12.796Z,91509.59
2024-05-09T07:25:58.120Z,91504.63
2024-05-09T07:28:43.032Z,91512.63
2024-05-09T07:31:27.961Z,91511.34
2024-05-09T07:34:13.034Z,91506.91
2024-05-09T07:36:57.862Z,91502.88
2024-05-09T07:39:42.648Z,91497.72
2024-05-09T07:42:27.586Z,91504.50
2024-05-09T07:45:29.827Z,91500.75
2024-05-09T07:53:56.164Z,91489.81
2024-05-09T07:56:43.983Z,91489.38
2024-05-09T07:59:29.182Z,91491.50
2024-05-09T08:02:14.409Z,91485.81
2024-05-09T08:04:59.483Z,91490.75
2024-05-09T08:07:44.379Z,91492.31
2024-05-09T08:10:29.589Z,91489.53
2024-05-09T08:13:14.399Z,91487.81
2024-05-09T08:15:59.357Z,91479.66
2024-05-09T08:18:44.420Z,91482.53
2024-05-09T08:21:29.360Z,91476.47
2024-05-09T08:24:14.365Z,91464.22
2024-05-09T08:26:59.379Z,91470.75
2024-05-09T08:29:45.375Z,91467.72
2024-05-09T08:32:30.555Z,91469.88
2024-05-09T08:35:15.630Z,91460.28
2024-05-09T08:38:00.644Z,91461.13
2024-05-09T08:40:45.843Z,91468.81
2024-05-09T08:43:30.845Z,91467.94
2024-05-09T08:46:15.890Z,91462.03
2024-05-09T08:49:01.118Z,91459.84
2024-05-09T08:51:46.429Z,91460.66
2024-05-09T08:54:31.517Z,91459.13
2024-05-09T08:57:16.496Z,91452.19
2024-05-09T09:00:01.464Z,91448.81
2024-05-09T09:02:46.463Z,91453.63
2024-05-09T09:05:31.984Z,91447.31
2024-05-09T09:08:17.497Z,91440.34
2024-05-09T09:11:02.319Z,91441.75
2024-05-09T09:13:47.492Z,91435.31
2024-05-09T09:16:32.520Z,91429.03
2024-05-09T09:19:17.697Z,91435.72
2024-05-09T09:22:02.590Z,91433.81
2024-05-09T09:24:47.507Z,91438.28
2024-05-09T09:27:32.634Z,91427.31
2024-05-09T09:30:31.413Z,91435.03
2024-05-09T09:33:21.939Z,91424.63
2024-05-09T09:36:08.964Z,91429.03
2024-05-09T09:38:55.221Z,91420.41
2024-05-09T09:41:40.237Z,91421.53
2024-05-09T09:44:25.114Z,91414.41
2024-05-09T09:47:10.217Z,91414.81
2024-05-09T09:49:55.210Z,91419.25
2024-05-09T09:52:40.161Z,91413.09
2024-05-09T09:55:25.227Z,91413.44
2024-05-09T09:58:13.257Z,91416.06
2024-05-09T10:00:59.483Z,91414.16
2024-05-09T10:03:44.647Z,91410.00
2024-05-09T10:06:29.481Z,91411.03
2024-05-09T10:09:14.547Z,91403.03
2024-05-09T10:12:00.414Z,91407.84
2024-05-09T10:14:45.950Z,91402.53
2024-05-09T10:17:31.108Z,91392.63
2024-05-09T10:20:21.838Z,91384.25
2024-05-09T10:23:10.521Z,91387.41
2024-05-09T10:25:55.516Z,91380.88
2024-05-09T10:28:40.508Z,91388.63
2024-05-09T10:31:25.563Z,91388.38
2024-05-09T10:34:10.676Z,91387.44
2024-05-09T10:36:55.822Z,91398.75
2024-05-09T10:39:41.136Z,91381.88
2024-05-09T10:42:26.097Z,91383.78
2024-05-09T10:45:10.976Z,91377.53
2024-05-09T10:47:56.183Z,91384.03
2024-05-09T10:50:41.068Z,91369.72
2024-05-09T10:53:25.989Z,91374.63
2024-05-09T10:56:10.971Z,91372.34
2024-05-09T10:58:56.074Z,91379.03
2024-05-09T11:01:41.268Z,91370.72
2024-05-09T11:04:26.809Z,91364.00
2024-05-09T11:07:11.689Z,91364.38
2024-05-09T11:09:56.772Z,91356.53
2024-05-09T11:12:41.702Z,91357.22
2024-05-09T11:15:26.617Z,91351.44
2024-05-09T11:18:11.704Z,91343.41
2024-05-09T11:20:56.521Z,91350.66
2024-05-09T11:23:41.859Z,91346.91
2024-05-09T11:26:26.839Z,91347.47
2024-05-09T11:29:12.538Z,91348.25
2024-05-09T11:31:58.347Z,91342.56
2024-05-09T11:34:43.492Z,91345.97
2024-05-09T11:37:28.514Z,91347.16
2024-05-09T11:40:21.184Z,91340.59
2024-05-09T11:43:10.477Z,91328.78
2024-05-09T11:45:55.471Z,91330.75
2024-05-09T11:48:40.594Z,91321.91
2024-05-09T11:51:25.857Z,91328.16
2024-05-09T11:54:10.900Z,91318.63
2024-05-09T11:56:55.686Z,91324.34
2024-05-09T11:59:40.571Z,91308.22
2024-05-09T12:02:25.625Z,91302.75
2024-05-09T12:05:10.660Z,91315.06
2024-05-09T12:07:55.477Z,91307.94
2024-05-09T12:10:40.780Z,91314.41
2024-05-09T12:13:26.253Z,91307.31
2024-05-09T12:16:11.142Z,91305.91
2024-05-09T12:18:56.221Z,91294.25
2024-05-09T12:21:41.036Z,91286.94
2024-05-09T12:24:25.947Z,91294.03
2024-05-09T12:27:11.001Z,91284.19
2024-05-09T12:29:56.003Z,91294.81
2024-05-09T12:32:40.961Z,91287.44
2024-05-09T12:35:25.871Z,91281.28
2024-05-09T12:38:10.883Z,91275.81
2024-05-09T12:40:56.123Z,91265.25
2024-05-09T12:43:41.404Z,91275.03
2024-05-09T12:46:26.528Z,91274.22
2024-05-09T12:49:13.746Z,91276.88
2024-05-09T12:52:00.169Z,91272.59
2024-05-09T12:54:45.214Z,91271.75
2024-05-09T12:57:30.287Z,91277.19
2024-05-09T13:00:23.505Z,91275.47
2024-05-09T13:03:13.334Z,91272.88
2024-05-09T13:05:58.612Z,91261.59
2024-05-09T13:08:43.666Z,91267.50
2024-05-09T13:11:28.784Z,91256.59
2024-05-09T13:14:13.776Z,91263.00
2024-05-09T13:16:58.969Z,91261.81
2024-05-09T13:19:43.901Z,91257.44
2024-05-09T13:22:28.966Z,91259.56
2024-05-09T13:25:13.931Z,91258.16
2024-05-09T13:27:58.979Z,91247.41
2024-05-09T13:30:44.364Z,91245.06
2024-05-09T13:33:29.329Z,91248.44
2024-05-09T13:36:14.267Z,91248.56
2024-05-09T13:38:59.201Z,91243.94
2024-05-09T13:41:44.139Z,91233.59
2024-05-09T13:44:28.931Z,91236.75
2024-05-09T13:47:14.033Z,91236.91
2024-05-09T13:49:58.956Z,91226.81
2024-05-09T13:52:43.907Z,91229.88
2024-05-09T13:55:28.954Z,91217.03
2024-05-09T13:58:13.949Z,91217.97
2024-05-09T14:00:59.028Z,91216.81
2024-05-09T14:03:44.068Z,91220.03
2024-05-09T14:06:29.111Z,91215.16
2024-05-09T14:09:14.003Z,91222.03
2024-05-09T14:11:59.075Z,91211.03
2024-05-09T14:14:44.106Z,91204.03
2024-05-09T14:17:29.184Z,91205.84
2024-05-09T14:20:19.456Z,91208.47
2024-05-09T14:23:12.668Z,91202.38
2024-05-09T14:25:57.640Z,91196.91
2024-05-09T14:28:42.551Z,91187.28
2024-05-09T14:31:27.697Z,91188.72
2024-05-09T14:34:12.737Z,91181.66
2024-05-09T14:36:58.052Z,91186.38
2024-05-09T14:39:43.005Z,91189.88
2024-05-09T14:42:28.152Z,91190.41
2024-05-09T14:45:13.090Z,91188.16
2024-05-09T14:47:58.166Z,91188.81
2024-05-09T14:50:43.285Z,91181.56
2024-05-09T14:53:28.018Z,91177.47
2024-05-09T14:56:13.017Z,91177.75
2024-05-09T14:58:58.000Z,91177.56
2024-05-09T15:01:43.056Z,91179.03
2024-05-09T15:04:27.917Z,91179.94
2024-05-09T15:07:12.746Z,91164.34
2024-05-09T15:09:57.864Z,91173.47
2024-05-09T15:12:42.912Z,91173.34
2024-05-09T15:15:27.938Z,91179.72
2024-05-09T15:18:12.975Z,91172.53
2024-05-09T15:20:58.536Z,91183.59
2024-05-09T15:23:43.359Z,91178.88
2024-05-09T15:26:28.456Z,91172.94
2024-05-09T15:29:13.462Z,91175.78
2024-05-09T15:31:58.495Z,91176.34
2024-05-09T15:34:43.489Z,91176.41
2024-05-09T15:37:28.429Z,91171.25
2024-05-09T15:40:18.520Z,91173.28
2024-05-09T15:43:11.789Z,91172.22
2024-05-09T15:45:57.145Z,91169.94
2024-05-09T15:48:44.528Z,91173.16
2024-05-09T15:51:30.159Z,91165.16
2024-05-09T15:54:15.113Z,91172.47
2024-05-09T15:57:00.062Z,91170.88
2024-05-09T15:59:45.078Z,91178.75
2024-05-09T16:02:30.071Z,91171.50
2024-05-09T16:05:15.182Z,91169.47
2024-05-09T16:07:59.929Z,91165.31
2024-05-09T16:10:46.007Z,91170.63
2024-05-09T16:13:32.079Z,91165.84
2024-05-09T16:16:17.143Z,91169.50
2024-05-09T16:19:05.310Z,91171.44
2024-05-09T16:21:50.148Z,91169.72
2024-05-09T16:24:35.263Z,91168.72
2024-05-09T16:27:20.305Z,91170.47
2024-05-09T16:30:09.418Z,91173.47
2024-05-09T16:32:57.332Z,91172.34
2024-05-09T16:35:42.197Z,91175.75
2024-05-09T16:38:27.098Z,91177.63
2024-05-09T16:41:12.095Z,91174.19
2024-05-09T16:43:57.076Z,91169.09
2024-05-09T16:46:41.926Z,91166.34
2024-05-09T16:49:27.015Z,91162.78
2024-05-09T16:52:12.027Z,91170.06
2024-05-09T16:54:57.024Z,91164.66
2024-05-09T16:57:42.088Z,91170.38
2024-05-09T17:00:37.909Z,91179.13
2024-05-09T17:03:26.649Z,91175.34
2024-05-09T17:06:11.646Z,91179.66
2024-05-09T17:09:01.853Z,91170.94
2024-05-09T17:11:50.060Z,91172.03
2024-05-09T17:14:35.025Z,91179.59
2024-05-09T17:17:20.128Z,91185.66
2024-05-09T17:20:08.155Z,91183.19
2024-05-09T17:22:53.369Z,91187.41
2024-05-09T17:25:38.452Z,91184.13
2024-05-09T17:28:23.518Z,91191.56
2024-05-09T17:31:08.401Z,91189.38
2024-05-09T17:33:53.488Z,91189.00
2024-05-09T17:36:38.877Z,91191.44
2024-05-09T17:39:23.753Z,91203.75
2024-05-09T17:42:08.865Z,91201.28
2024-05-09T17:44:53.908Z,91206.72
2024-05-09T17:47:38.881Z,91210.81
2024-05-09T17:50:30.400Z,91208.03
2024-05-09T17:53:19.452Z,91209.72
2024-05-09T17:56:04.556Z,91205.16
2024-05-09T17:58:49.536Z,91212.16
2024-05-09T18:01:34.465Z,91215.53
2024-05-09T18:04:19.610Z,91224.25
2024-05-09T18:07:05.024Z,91219.66
2024-05-09T18:09:49.860Z,91227.44
2024-05-09T18:12:34.778Z,91234.75
2024-05-09T18:15:19.668Z,91230.47
2024-05-09T18:18:04.964Z,91240.50
2024-05-09T18:20:50.130Z,91249.09
2024-05-09T18:23:35.091Z,91253.91
2024-05-09T18:26:20.284Z,91249.84
2024-05-09T18:29:05.246Z,91258.06
2024-05-09T18:31:50.284Z,91249.13
2024-05-09T18:34:35.278Z,91242.84
2024-05-09T18:37:20.450Z,91251.50
2024-05-09T18:40:05.890Z,91255.63
2024-05-09T18:42:50.733Z,91260.81
2024-05-09T18:45:36.095Z,91267.88
2024-05-09T18:48:21.441Z,91264.84
2024-05-09T18:51:06.494Z,91268.63
2024-05-09T18:53:51.407Z,91273.72
2024-05-09T18:56:36.381Z,91272.03
2024-05-09T18:59:21.330Z,91271.06
2024-05-09T19:02:06.623Z,91279.53
2024-05-09T19:04:52.012Z,91279.53
2024-05-09T19:07:36.940Z,91287.00
2024-05-09T19:10:25.608Z,91295.31
2024-05-09T19:13:13.454Z,91299.00
2024-05-09T19:15:59.406Z,91299.00
2024-05-09T19:18:44.501Z,91305.28
2024-05-09T19:21:29.404Z,91312.81
2024-05-09T19:24:14.492Z,91312.47
2024-05-09T19:26:59.757Z,91318.22
2024-05-09T19:29:44.513Z,91327.13
2024-05-09T19:32:29.622Z,91328.81
2024-05-09T19:35:14.463Z,91333.28
2024-05-09T19:37:59.391Z,91339.09
2024-05-09T19:40:44.383Z,91340.44
2024-05-09T19:43:30.693Z,91349.78
2024-05-09T19:46:16.766Z,91350.53
2024-05-09T19:49:01.824Z,91351.03
2024-05-09T19:51:47.204Z,91351.22
2024-05-09T19:54:32.217Z,91356.63
2024-05-09T19:57:17.334Z,91361.34
2024-05-09T20:00:02.529Z,91361.84
2024-05-09T20:02:48.531Z,91365.78
2024-05-09T20:05:34.304Z,91370.34
2024-05-09T20:08:19.393Z,91371.84
2024-05-09T20:11:04.285Z,91377.81
2024-05-09T20:13:49.414Z,91371.03
2024-05-09T20:16:34.553Z,91372.13
2024-05-09T20:19:19.601Z,91373.38
2024-05-09T20:22:04.494Z,91374.09
2024-05-09T20:24:49.510Z,91383.59
2024-05-09T20:27:34.440Z,91380.16
2024-05-09T20:30:25.533Z,91379.34
2024-05-09T20:33:16.436Z,91392.13
2024-05-09T20:36:02.492Z,91386.03
2024-05-09T20:38:47.800Z,91392.81
2024-05-09T20:41:35.174Z,91394.75
2024-05-09T20:44:21.006Z,91407.53
2024-05-09T20:47:05.922Z,91401.31
2024-05-09T20:49:50.946Z,91400.13
2024-05-09T20:52:35.894Z,91410.47
2024-05-09T20:55:21.121Z,91411.28
2024-05-09T20:58:06.105Z,91411.41
2024-05-09T21:00:51.232Z,91405.91
2024-05-09T21:03:36.156Z,91411.63
2024-05-09T21:06:21.141Z,91404.84
2024-05-09T21:09:06.073Z,91415.94
2024-05-09T21:11:51.130Z,91425.75
2024-05-09T21:14:36.059Z,91413.47
2024-05-09T21:17:21.018Z,91415.47
2024-05-09T21:20:09.371Z,91421.66
2024-05-09T21:22:59.094Z,91418.63
2024-05-09T21:25:44.206Z,91423.94
2024-05-09T21:28:29.101Z,91423.16
2024-05-09T21:31:14.077Z,91418.72
2024-05-09T21:33:59.060Z,91421.50
2024-05-09T21:36:44.054Z,91425.03
2024-05-09T21:39:28.829Z,91423.84
2024-05-09T21:42:13.821Z,91421.63
2024-05-09T21:44:58.833Z,91424.72
2024-05-09T21:47:44.062Z,91423.59
2024-05-09T21:50:36.865Z,91417.97
2024-05-09T21:53:25.545Z,91423.34
2024-05-09T21:56:10.462Z,91426.13
2024-05-09T21:58:55.441Z,91427.91
2024-05-09T22:01:40.626Z,91433.50
2024-05-09T22:04:25.668Z,91435.34
2024-05-09T22:07:10.692Z,91438.00
2024-05-09T22:09:55.583Z,91437.66
2024-05-09T22:12:40.636Z,91443.53
2024-05-09T22:15:25.696Z,91441.50
2024-05-09T22:18:11.559Z,91438.59
2024-05-09T22:20:57.155Z,91445.47
2024-05-09T22:23:42.086Z,91441.38
2024-05-09T22:26:27.204Z,91452.66
2024-05-09T22:29:12.121Z,91450.09
2024-05-09T22:31:57.116Z,91447.06
2024-05-09T22:34:42.043Z,91456.38
2024-05-09T22:37:27.016Z,91452.97
2024-05-09T22:40:17.535Z,91454.56
2024-05-09T22:43:05.738Z,91449.53
2024-05-09T22:45:50.711Z,91453.56
2024-05-09T22:48:35.638Z,91457.19
2024-05-09T22:51:20.886Z,91459.44
2024-05-09T22:54:05.992Z,91456.28
2024-05-09T22:56:50.893Z,91454.63
2024-05-09T22:59:35.946Z,91458.09
2024-05-09T23:02:21.096Z,91459.53
2024-05-09T23:05:06.169Z,91452.00
2024-05-09T23:07:51.646Z,91457.13
2024-05-09T23:10:38.015Z,91460.28
2024-05-09T23:13:23.747Z,91453.34
2024-05-09T23:16:09.281Z,91459.28
2024-05-09T23:18:54.278Z,91459.84
2024-05-09T23:21:39.209Z,91460.03
2024-05-09T23:24:24.155Z,91456.19
2024-05-09T23:27:09.192Z,91459.59
2024-05-09T23:29:54.221Z,91460.59
2024-05-09T23:32:39.363Z,91452.88
2024-05-09T23:35:24.358Z,91453.41
2024-05-09T23:38:09.366Z,91445.97
2024-05-09T23:40:54.558Z,91449.53
2024-05-09T23:43:39.349Z,91449.78
2024-05-09T23:46:24.501Z,91446.06
2024-05-09T23:49:09.494Z,91440.78
2024-05-09T23:51:54.541Z,91441.44
2024-05-09T23:54:39.685Z,91440.16
2024-05-09T23:57:24.721Z,91447.88
